• Join FlightAware (Why Join?)
  • Login
  • US Flag 
11:23AM EST


 

Airport Tracker/Info


-or-


 

Live Flight TrackerFlight Track Log ✈ N502QS ✈ 21-Jul-2013 ✈ LFPB / LBG - KBGR

Flight Track Log - Related Links

Times and Time Zones

All times are in EDT time to prevent confusion due to time zone crossing. See the N502QS flight status page for this flight to view local times or setup timezone preferences in your user account.

Time Position Orientation Groundspeed Altitude Reporting Facility
EDT Latitude Longitude Course Direction KTS MPH feet Rate Location/Type
07:39AM 52.4615 -16.6219 293° West  Level Estimated
07:40AM 52.4802 -16.8273 279° West  Level Estimated
07:41AM 52.4986 -17.0329 278° West  Level Estimated
07:42AM 52.5166 -17.2386 278° West  Level Estimated
07:43AM 52.5342 -17.4445 278° West  Level Estimated
07:44AM 52.5515 -17.6505 278° West  Level Estimated
07:45AM 52.5684 -17.8567 278° West  Level Estimated
07:46AM 52.5850 -18.0631 278° West  Level Estimated
07:47AM 52.6012 -18.2696 277° West  Level Estimated
07:48AM 52.6170 -18.4763 277° West  Level Estimated
07:49AM 52.6325 -18.6831 277° West  Level Estimated
07:50AM 52.6476 -18.8901 277° West  Level Estimated
07:51AM 52.6624 -19.0972 277° West  Level Estimated
07:52AM 52.6768 -19.3044 277° West  Level Estimated
07:53AM 52.6908 -19.5118 276° West  Level Estimated
07:54AM 52.7045 -19.7193 276° West  Level Estimated
07:55AM 52.7178 -19.9270 276° West  Level Estimated
07:56AM 52.7307 -20.1347 276° West  Level Estimated
07:57AM 52.7433 -20.3426 276° West  Level Estimated
07:58AM 52.7556 -20.5506 276° West  Level Estimated
07:59AM 52.7674 -20.7588 275° West  Level Estimated
08:00AM 52.7789 -20.9670 275° West  Level Estimated
08:01AM 52.7900 -21.1753 275° West  Level Estimated
08:02AM 52.8008 -21.3838 275° West  Level Estimated
08:03AM 52.8112 -21.5923 275° West  Level Estimated
08:03AM 56.0000 -20.0000 284° West 492 566 43,000  Level ETMS Enhanced Traffic Management System
08:04AM 52.8212 -21.8010 275° West  Level Estimated
08:05AM 52.8309 -22.0097 274° West  Level Estimated
08:06AM 52.8402 -22.2185 274° West  Level Estimated
08:07AM 52.8491 -22.4275 274° West  Level Estimated
08:08AM 52.8577 -22.6365 274° West  Level Estimated
08:09AM 52.8659 -22.8456 274° West  Level Estimated
08:10AM 56.3174 -22.3874 282° West 492 566 43,000  Level FlightAware Transoceanic
08:11AM 56.3466 -22.6282 282° West 492 566 43,000  Level FlightAware Transoceanic
08:12AM 56.3753 -22.8695 282° West 492 566 43,000  Level FlightAware Transoceanic
08:13AM 56.4036 -23.1110 282° West 492 566 43,000  Level FlightAware Transoceanic
08:14AM 56.4314 -23.3530 282° West 492 566 43,000  Level FlightAware Transoceanic
08:15AM 56.4587 -23.5953 281° West 492 566 43,000  Level FlightAware Transoceanic
08:16AM 56.4855 -23.8379 281° West 492 566 43,000  Level FlightAware Transoceanic
08:17AM 56.5119 -24.0809 281° West 492 566 43,000  Level FlightAware Transoceanic
08:18AM 56.5378 -24.3242 281° West 492 566 43,000  Level FlightAware Transoceanic
08:19AM 56.5632 -24.5678 281° West 492 566 43,000  Level FlightAware Transoceanic
08:20AM 56.5882 -24.8118 280° West 492 566 43,000  Level FlightAware Transoceanic
08:21AM 56.6126 -25.0561 280° West 492 566 43,000  Level FlightAware Transoceanic
08:22AM 56.6366 -25.3007 280° West 492 566 43,000  Level FlightAware Transoceanic
08:23AM 56.6601 -25.5456 280° West 492 566 43,000  Level FlightAware Transoceanic
08:24AM 56.6831 -25.7908 280° West 492 566 43,000  Level FlightAware Transoceanic
08:25AM 56.7057 -26.0363 279° West 492 566 43,000  Level FlightAware Transoceanic
08:26AM 56.7277 -26.2821 279° West 492 566 43,000  Level FlightAware Transoceanic
08:27AM 56.7493 -26.5282 279° West 492 566 43,000  Level FlightAware Transoceanic
08:28AM 56.7704 -26.7746 279° West 492 566 43,000  Level FlightAware Transoceanic
08:29AM 56.7910 -27.0212 279° West 492 566 43,000  Level FlightAware Transoceanic
08:30AM 56.8111 -27.2681 278° West 492 566 43,000  Level FlightAware Transoceanic
08:31AM 56.8307 -27.5153 278° West 492 566 43,000  Level FlightAware Transoceanic
08:32AM 56.8499 -27.7627 278° West 492 566 43,000  Level FlightAware Transoceanic
08:33AM 56.8685 -28.0104 278° West 492 566 43,000  Level FlightAware Transoceanic
08:34AM 56.8867 -28.2583 278° West 492 566 43,000  Level FlightAware Transoceanic
08:35AM 56.9044 -28.5064 277° West 492 566 43,000  Level FlightAware Transoceanic
08:36AM 56.9215 -28.7548 277° West 492 566 43,000  Level FlightAware Transoceanic
08:37AM 56.9382 -29.0034 277° West 492 566 43,000  Level FlightAware Transoceanic
08:38AM 56.9544 -29.2523 277° West 492 566 43,000  Level FlightAware Transoceanic
08:39AM 56.9701 -29.5013 276° West 492 566 43,000  Level FlightAware Transoceanic
08:40AM 56.9853 -29.7505 276° West 492 566 43,000  Level FlightAware Transoceanic
08:41AM 56.9989 -29.9814 276° West  Level FlightAware Approximate
08:42AM 57.0121 -30.2124 276° West  Level FlightAware Approximate
08:42AM 57.0000 -30.0000 274° West 489 563 43,000  Level ETMS Enhanced Traffic Management System
08:43AM 57.0076 -30.1944 274° West  Level FlightAware Approximate
08:44AM 57.0163 -30.4262 274° West  Level FlightAware Approximate
08:45AM 57.0246 -30.6581 274° West  Level FlightAware Approximate
08:46AM 57.0324 -30.8901 274° West  Level FlightAware Approximate
08:47AM 57.0398 -31.1222 273° West  Level FlightAware Approximate
08:48AM 57.0575 -31.7466 273° West 489 563 43,000  Level FlightAware Transoceanic
08:49AM 57.0638 -31.9966 273° West 489 563 43,000  Level FlightAware Transoceanic
08:50AM 57.0695 -32.2466 272° West 489 563 43,000  Level FlightAware Transoceanic
08:51AM 57.0747 -32.4966 272° West 489 563 43,000  Level FlightAware Transoceanic
08:52AM 57.0795 -32.7468 272° West 489 563 43,000  Level FlightAware Transoceanic
08:53AM 57.0837 -32.9970 272° West 489 563 43,000  Level FlightAware Transoceanic
08:54AM 57.0875 -33.2472 271° West 489 563 43,000  Level FlightAware Transoceanic
08:55AM 57.0907 -33.4976 271° West 489 563 43,000  Level FlightAware Transoceanic
08:56AM 57.0935 -33.7479 271° West 489 563 43,000  Level FlightAware Transoceanic
08:57AM 57.0957 -33.9983 271° West 489 563 43,000  Level FlightAware Transoceanic
08:58AM 57.0975 -34.2487 271° West 489 563 43,000  Level FlightAware Transoceanic
08:59AM 57.0987 -34.4991 270° West 489 563 43,000  Level FlightAware Transoceanic
09:00AM 57.0994 -34.7495 270° West 489 563 43,000  Level FlightAware Transoceanic
09:01AM 57.0997 -35.0000 270° West 489 563 43,000  Level FlightAware Transoceanic
09:02AM 57.0994 -35.2505 270° West 489 563 43,000  Level FlightAware Transoceanic
09:03AM 57.0987 -35.5009 270° West 489 563 43,000  Level FlightAware Transoceanic
09:04AM 57.0975 -35.7513 269° West 489 563 43,000  Level FlightAware Transoceanic
09:05AM 57.0957 -36.0017 269° West 489 563 43,000  Level FlightAware Transoceanic
09:06AM 57.0935 -36.2521 269° West 489 563 43,000  Level FlightAware Transoceanic
09:07AM 57.0907 -36.5024 269° West 489 563 43,000  Level FlightAware Transoceanic
09:08AM 57.0875 -36.7528 269° West 489 563 43,000  Level FlightAware Transoceanic
09:09AM 57.0837 -37.0030 268° West 489 563 43,000  Level FlightAware Transoceanic
09:10AM 57.0795 -37.2532 268° West 489 563 43,000  Level FlightAware Transoceanic
09:11AM 57.0747 -37.5034 268° West 489 563 43,000  Level FlightAware Transoceanic
09:12AM 57.0695 -37.7534 268° West 489 563 43,000  Level FlightAware Transoceanic
09:13AM 57.0638 -38.0034 267° West 489 563 43,000  Level FlightAware Transoceanic
09:14AM 57.0575 -38.2534 267° West 489 563 43,000  Level FlightAware Transoceanic
09:15AM 57.0508 -38.5032 267° West 489 563 43,000  Level FlightAware Transoceanic
09:16AM 57.0436 -38.7529 267° West 489 563 43,000  Level FlightAware Transoceanic
09:17AM 57.0359 -39.0026 267° West 489 563 43,000  Level FlightAware Transoceanic
09:18AM 57.0276 -39.2521 266° West 489 563 43,000  Level FlightAware Transoceanic
09:19AM 57.0189 -39.5015 266° West 489 563 43,000  Level FlightAware Transoceanic
09:20AM 57.0097 -39.7508 266° West 489 563 43,000  Level FlightAware Transoceanic
09:21AM 57.0007 -39.9825 266° West  Level FlightAware Approximate
09:22AM 56.9912 -40.2141 266° West  Level FlightAware Approximate
09:22AM 57.0000 -40.0000 264° West 458 527 43,000  Level ETMS Enhanced Traffic Management System
09:23AM 56.9885 -40.1961 264° West  Level FlightAware Approximate
09:24AM 56.9745 -40.4268 264° West  Level FlightAware Approximate
09:25AM 56.9602 -40.6573 264° West  Level FlightAware Approximate
09:26AM 56.9454 -40.8877 263° West  Level FlightAware Approximate
09:27AM 56.9301 -41.1179 263° West  Level FlightAware Approximate
09:28AM 56.9145 -41.3479 263° West  Level FlightAware Approximate
09:29AM 56.8785 -41.8544 262° West 458 527 43,000  Level FlightAware Transoceanic
09:30AM 56.8614 -42.0854 262° West 458 527 43,000  Level FlightAware Transoceanic
09:31AM 56.8438 -42.3161 262° West 458 527 43,000  Level FlightAware Transoceanic
09:32AM 56.8259 -42.5466 262° West 458 527 43,000  Level FlightAware Transoceanic
09:33AM 56.8075 -42.7768 262° West 458 527 43,000  Level FlightAware Transoceanic
09:34AM 56.7887 -43.0069 261° West 458 527 43,000  Level FlightAware Transoceanic
09:35AM 56.7695 -43.2366 261° West 458 527 43,000  Level FlightAware Transoceanic
09:36AM 56.7498 -43.4662 261° West 458 527 43,000  Level FlightAware Transoceanic
09:37AM 56.7297 -43.6955 261° West 458 527 43,000  Level FlightAware Transoceanic
09:38AM 56.7092 -43.9246 261° West 458 527 43,000  Level FlightAware Transoceanic
09:39AM 56.6883 -44.1534 260° West 458 527 43,000  Level FlightAware Transoceanic
09:40AM 56.6670 -44.3820 260° West 458 527 43,000  Level FlightAware Transoceanic
09:41AM 56.6452 -44.6103 260° West 458 527 43,000  Level FlightAware Transoceanic
09:42AM 56.6230 -44.8383 260° West 458 527 43,000  Level FlightAware Transoceanic
09:43AM 56.6004 -45.0661 260° West 458 527 43,000  Level FlightAware Transoceanic
09:44AM 56.5774 -45.2936 259° West 458 527 43,000  Level FlightAware Transoceanic
09:45AM 56.5540 -45.5208 259° West 458 527 43,000  Level FlightAware Transoceanic
09:46AM 56.5302 -45.7477 259° West 458 527 43,000  Level FlightAware Transoceanic
09:47AM 56.5060 -45.9744 259° West 458 527 43,000  Level FlightAware Transoceanic
09:48AM 56.4813 -46.2007 259° West 458 527 43,000  Level FlightAware Transoceanic
09:49AM 56.4562 -46.4268 259° West 458 527 43,000  Level FlightAware Transoceanic
09:50AM 56.4307 -46.6525 258° West 458 527 43,000  Level FlightAware Transoceanic
09:51AM 56.4049 -46.8780 258° West 458 527 43,000  Level FlightAware Transoceanic
09:52AM 56.3786 -47.1031 258° West 458 527 43,000  Level FlightAware Transoceanic
09:53AM 56.3518 -47.3279 258° West 458 527 43,000  Level FlightAware Transoceanic
09:54AM 56.3247 -47.5524 258° West 458 527 43,000  Level FlightAware Transoceanic
09:55AM 56.2972 -47.7766 257° West 458 527 43,000  Level FlightAware Transoceanic
09:56AM 56.2693 -48.0005 257° West 458 527 43,000  Level FlightAware Transoceanic
09:57AM 56.2410 -48.2240 257° West 458 527 43,000  Level FlightAware Transoceanic
09:58AM 56.2123 -48.4472 257° West 458 527 43,000  Level FlightAware Transoceanic
09:59AM 56.1831 -48.6701 257° West 458 527 43,000  Level FlightAware Transoceanic
10:00AM 56.1536 -48.8926 257° West 458 527 43,000  Level FlightAware Transoceanic
10:01AM 56.1237 -49.1148 256° West 458 527 43,000  Level FlightAware Transoceanic
10:02AM 56.0933 -49.3366 256° West 458 527 43,000  Level FlightAware Transoceanic
10:03AM 56.0626 -49.5581 256° West 458 527 43,000  Level FlightAware Transoceanic
10:04AM 56.0315 -49.7792 256° West 458 527 43,000  Level FlightAware Transoceanic
10:05AM 56.0002 -49.9985 256° West  Level FlightAware Approximate
10:06AM 55.9693 -50.2178 256° West  Level FlightAware Approximate
10:07AM 55.9570 -50.2094 250° West  Level FlightAware Approximate
10:07AM 56.0000 -50.0000 250° West 433 498 43,000  Level ETMS Enhanced Traffic Management System
10:08AM 55.9130 -50.4211 250° West  Level FlightAware Approximate
10:09AM 55.8687 -50.6324 250° West  Level FlightAware Approximate
10:10AM 55.8240 -50.8432 249° West  Level FlightAware Approximate
10:11AM 55.7790 -51.0535 249° West  Level FlightAware Approximate
10:12AM 55.7336 -51.2633 249° West  Level FlightAware Approximate
10:13AM 55.6589 -51.6042 249° West 433 498 43,000  Level FlightAware Transoceanic
10:14AM 55.6147 -51.8028 248° West 433 498 43,000  Level FlightAware Transoceanic
10:15AM 55.5703 -52.0009 248° West 433 498 43,000  Level FlightAware Transoceanic
10:16AM 55.5256 -52.1985 248° West 433 498 43,000  Level FlightAware Transoceanic
10:17AM 55.4805 -52.3957 248° West 433 498 43,000  Level FlightAware Transoceanic
10:18AM 55.4352 -52.5924 248° West 433 498 43,000  Level FlightAware Transoceanic
10:19AM 55.3895 -52.7887 248° West 433 498 43,000  Level FlightAware Transoceanic
10:20AM 55.3435 -52.9845 247° West 433 498 43,000  Level FlightAware Transoceanic
10:21AM 55.2971 -53.1799 247° West 433 498 43,000  Level FlightAware Transoceanic
10:22AM 55.2505 -53.3748 247° West 433 498 43,000  Level FlightAware Transoceanic
10:23AM 55.2036 -53.5693 247° West 433 498 43,000  Level FlightAware Transoceanic
10:24AM 55.1563 -53.7633 247° West 433 498 43,000  Level FlightAware Transoceanic
10:25AM 55.1088 -53.9568 247° West 433 498 43,000  Level FlightAware Transoceanic
10:26AM 55.0609 -54.1499 247° West 433 498 43,000  Level FlightAware Transoceanic
10:27AM 55.0128 -54.3425 246° West 433 498 43,000  Level FlightAware Transoceanic
10:28AM 54.9643 -54.5347 246° West 433 498 43,000  Level FlightAware Transoceanic
10:29AM 54.9156 -54.7263 246° West 433 498 43,000  Level FlightAware Transoceanic
10:29AM 54.9000 -54.7333 245° Southwest 450 518 43,000  Level Gander Center
10:30AM 54.8665 -54.9176 246° West 433 498 43,000 -120 Level FlightAware Transoceanic
10:30AM 54.8333 -54.9500 242° Southwest 450 518 42,900  Descending Gander Center
10:31AM 54.8171 -55.1083 246° West 433 498 43,000  Climbing FlightAware Transoceanic
10:31AM 54.7667 -55.1000 232° Southwest 440 506 42,900  Descending Gander Center
10:32AM 54.7674 -55.2986 246° West 433 498 43,000  Climbing FlightAware Transoceanic
10:32AM 54.6667 -55.2667 224° Southwest 440 506 42,900  Descending Gander Center
10:33AM 54.7175 -55.4884 245° Southwest 433 498 43,000  Climbing FlightAware Transoceanic
10:33AM 54.6000 -55.4167 233° Southwest 440 506 42,900  Descending Gander Center
10:34AM 54.6672 -55.6778 245° Southwest 433 498 43,000 60 Climbing FlightAware Transoceanic
10:34AM 54.5000 -55.5833 224° Southwest 450 518 43,000 -60 Level Gander Center
10:35AM 54.6139 -55.8768 245° Southwest  Level FlightAware Approximate
10:35AM 54.4167 -55.7333 226° Southwest 440 506 42,900  Level Gander Center
10:36AM 54.3500 -55.8833 233° Southwest 440 506 42,900  Level Gander Center
10:37AM 54.2500 -56.0500 224° Southwest 440 506 42,900  Level Gander Center
10:38AM 54.1833 -56.2000 233° Southwest 440 506 42,900  Level Gander Center
10:39AM 54.0833 -56.3500 221° Southwest 450 518 42,900  Level Gander Center
10:40AM 54.0000 -56.5000 227° Southwest 440 506 43,000  Climbing Gander Center
10:41AM 53.9167 -56.6333 223° Southwest 440 506 42,900  Descending Gander Center
10:42AM 53.8333 -56.7833 227° Southwest 440 506 43,000  Climbing Gander Center
10:43AM 53.7333 -56.9333 222° Southwest 440 506 42,900 -60 Descending Gander Center
10:44AM 53.6500 -57.0833 227° Southwest 440 506 42,900  Level Gander Center
10:45AM 53.5833 -57.2333 233° Southwest 440 506 43,000  Climbing Gander Center
10:46AM 53.4833 -57.3833 222° Southwest 440 506 42,900 -60 Descending Gander Center
10:47AM 53.4000 -57.5167 224° Southwest 440 506 42,900  Level Gander Center
10:48AM 53.3333 -57.6667 233° Southwest 440 506 43,000  Climbing Gander Center
10:49AM 53.2333 -57.8167 222° Southwest 440 506 42,900 -60 Descending Gander Center
10:50AM 53.1500 -57.9667 227° Southwest 440 506 42,900  Level Gander Center
10:51AM 53.0500 -58.1167 222° Southwest 440 506 42,900  Level Gander Center
10:52AM 52.9667 -58.2500 224° Southwest 440 506 42,900  Level Gander Center
10:53AM 52.8833 -58.4000 227° Southwest 450 518 42,900  Level Gander Center
10:54AM 52.8000 -58.5500 227° Southwest 450 518 42,900  Level Gander Center
10:55AM 52.7000 -58.6833 219° Southwest 450 518 42,900  Level Gander Center
10:56AM 52.6000 -58.8333 222° Southwest 450 518 42,900  Level Gander Center
10:57AM 52.5167 -58.9667 224° Southwest 450 518 42,900  Level Gander Center
10:58AM 52.4167 -59.1167 222° Southwest 450 518 42,900  Level Gander Center
10:59AM 52.3500 -59.2500 231° Southwest 450 518 42,900  Level Gander Center
11:00AM 52.2500 -59.4000 223° Southwest 450 518 42,900  Level Gander Center
11:01AM 52.1667 -59.5333 224° Southwest 450 518 42,900  Level Gander Center
11:02AM 52.0833 -59.6833 228° Southwest 440 506 42,900  Level Gander Center
11:03AM 51.9833 -59.8167 219° Southwest 440 506 42,900  Level Gander Center
11:04AM 51.9000 -59.9500 225° Southwest 440 506 42,900  Level Gander Center
11:05AM 51.8000 -60.1000 223° Southwest 440 506 42,900  Level Gander Center
11:06AM 51.7167 -60.2333 225° Southwest 440 506 42,900  Level Gander Center
11:07AM 51.6167 -60.3667 220° Southwest 440 506 42,900  Level Gander Center
11:08AM 51.5333 -60.5000 225° Southwest 440 506 42,900  Level Gander Center
11:09AM 51.4500 -60.6167 221° Southwest 440 506 42,900  Level Gander Center
11:10AM 51.3500 -60.7667 223° Southwest 430 495 42,900  Level Gander Center
11:11AM 51.2667 -60.8833 221° Southwest 440 506 42,900  Level Gander Center
11:12AM 51.1667 -61.0167 220° Southwest 440 506 42,900  Level Gander Center
11:13AM 51.0833 -61.1500 225° Southwest 440 506 42,900  Level Gander Center
11:14AM 50.9833 -61.2833 220° Southwest 440 506 42,900  Level Gander Center
11:15AM 50.9000 -61.4167 225° Southwest 440 506 42,900  Level Gander Center
11:16AM 50.8167 -61.5500 225° Southwest 430 495 42,900  Level Gander Center
11:17AM 50.7333 -61.6833 225° Southwest 430 495 42,900  Level Gander Center
11:18AM 50.6500 -61.7833 217° Southwest 430 495 42,900  Level Gander Center
11:19AM 50.5500 -61.9167 220° Southwest 430 495 42,900  Level Gander Center
11:20AM 50.4667 -62.0500 226° Southwest 420 483 42,900  Level Gander Center
11:21AM 50.3833 -62.1667 222° Southwest 410 472 42,900  Level Gander Center
11:22AM 50.2833 -62.3000 220° Southwest 420 483 42,900  Level Gander Center
11:23AM 50.2167 -62.4000 224° Southwest 420 483 42,900  Level Gander Center
11:24AM 50.1333 -62.5333 226° Southwest 420 483 42,900  Level Gander Center
11:25AM 50.0333 -62.6667 221° Southwest 420 483 42,900  Level Gander Center
11:26AM 49.9500 -62.7667 218° Southwest 420 483 42,900  Level Gander Center
11:27AM 49.8500 -62.8833 217° Southwest 420 483 42,900  Level Gander Center
11:28AM 49.7667 -63.0167 226° Southwest 420 483 42,900  Level Gander Center
11:29AM 49.6667 -63.1500 221° Southwest 420 483 42,900  Level Gander Center
11:30AM 49.5833 -63.2500 218° Southwest 420 483 42,900  Level Gander Center
11:31AM 49.5000 -63.3667 222° Southwest 420 483 42,900  Level Gander Center
11:32AM 49.4167 -63.5000 226° Southwest 420 483 42,900  Level Gander Center
11:33AM 49.3333 -63.5833 213° Southwest 420 483 42,900  Level Gander Center
11:34AM 49.2167 -63.7167 217° Southwest 420 483 42,900  Level Gander Center
11:35AM 49.1333 -63.8333 223° Southwest 420 483 42,900  Level Gander Center
11:36AM 49.0500 -63.9667 226° Southwest 420 483 42,900  Level Gander Center
11:37AM 48.9667 -64.0500 213° Southwest 430 495 42,900  Level Gander Center
11:38AM 48.8833 -64.1833 226° Southwest 430 495 42,900  Level Gander Center
11:39AM 48.8000 -64.3000 223° Southwest 420 483 42,900  Level Gander Center
11:40AM 48.6833 -64.4167 213° Southwest 420 483 42,900  Level Gander Center
11:41AM 48.6000 -64.5500 227° Southwest 420 483 42,900  Level Gander Center
11:42AM 48.5167 -64.6333 214° Southwest 420 483 42,900  Level Gander Center
11:43AM 48.4333 -64.7500 223° Southwest 420 483 42,900  Level Gander Center
11:44AM 48.3333 -64.8833 222° Southwest 420 483 42,900  Level Gander Center
11:45AM 48.2333 -65.0000 218° Southwest 430 495 42,900  Level Gander Center
11:46AM 48.1500 -65.0833 214° Southwest 420 483 42,900  Level Gander Center
11:47AM 48.0667 -65.2000 223° Southwest 420 483 42,900  Level Gander Center
11:48AM 47.9500 -65.3167 214° Southwest 430 495 42,900  Level Gander Center
11:49AM 47.8667 -65.4167 219° Southwest 430 495 42,900  Level Gander Center
11:51AM 47.7833 -65.5500 227° Southwest 420 483 42,900  Level Moncton Center
11:52AM 47.6833 -65.6667 218° Southwest 420 483 42,900  Level Moncton Center
11:53AM 47.5833 -65.7667 214° Southwest 420 483 42,900  Level Moncton Center
11:54AM 47.5000 -65.8833 223° Southwest 420 483 42,900  Level Moncton Center
11:55AM 47.4000 -65.9833 214° Southwest 420 483 42,900  Level Moncton Center
11:56AM 47.3167 -66.1000 224° Southwest 420 483 42,900  Level Moncton Center
11:57AM 47.2333 -66.2000 219° Southwest 410 472 42,900  Level Moncton Center
11:58AM 47.1500 -66.3167 224° Southwest 410 472 42,900  Level Moncton Center
11:59AM 47.0500 -66.4167 214° Southwest 410 472 42,900 -120 Level Moncton Center
12:00PM 46.9667 -66.5000 214° Southwest 410 472 42,700 -1,020 Descending Moncton Center
12:01PM 46.8667 -66.6333 222° Southwest 410 472 40,900 -1,800 Descending Moncton Center
12:02PM 46.7833 -66.7167 214° Southwest 410 472 39,200 -1,740 Descending Moncton Center
12:03PM 46.7000 -66.8333 224° Southwest 400 460 37,500 -1,680 Descending Moncton Center
12:04PM 46.6167 -66.9333 220° Southwest 390 449 35,900 -1,740 Descending Moncton Center
12:05PM 46.5333 -67.0167 215° Southwest 390 449 34,100 -1,740 Descending Moncton Center
12:06PM 46.4500 -67.1167 220° Southwest 390 449 32,500 -1,740 Descending Moncton Center
12:07PM 46.3500 -67.2333 219° Southwest 400 460 30,700 -1,740 Descending Moncton Center
12:08PM 46.2833 -67.3500 230° Southwest 400 460 29,100 -900 Descending Moncton Center
12:09PM 46.2167 -67.4667 230° Southwest 400 460 28,900 -720 Descending Moncton Center
12:10PM 46.1500 -67.6167 237° Southwest 400 460 27,700 -1,500 Descending Moncton Center
12:11PM 46.0850 -67.7367 232° Southwest 405 466 25,800 -1,800 Descending Boston Center
12:12PM 45.9883 -67.8253 213° Southwest 399 459 24,000 -1,500 Descending Boston Center
12:13PM 45.8939 -67.9106 212° Southwest 409 471 22,900 -1,500 Descending Boston Center
12:14PM 45.8014 -67.9983 213° Southwest 409 471 21,000 -1,920 Descending Boston Center
12:15PM 45.7089 -68.0886 214° Southwest 404 465 19,100 -1,920 Descending Boston Center
12:16PM 45.6206 -68.1756 215° Southwest 404 465 17,200 -1,920 Descending Boston Center
12:17PM 45.5317 -68.2564 213° Southwest 392 451 15,300 -1,860 Descending Boston Center
12:18PM 45.4447 -68.3336 212° Southwest 387 445 13,500 -1,800 Descending Boston Center
12:19PM 45.3600 -68.4106 213° Southwest 376 433 11,800 -1,560 Descending Boston Center
12:20PM 45.2853 -68.4778 212° Southwest 370 426 10,400 -960 Descending Boston Center
12:21PM 45.2064 -68.5511 213° Southwest 355 409 9,900 -720 Descending Boston Center
12:22PM 45.1436 -68.6083 213° Southwest 318 366 9,000 -1,320 Descending Boston Center
12:23PM 45.0831 -68.6622 212° Southwest 281 323 7,300 -1,740 Descending Boston Center
12:24PM 45.0072 -68.6406 169° South 249 287 5,200 -1,500 Descending Boston Center
12:25PM 44.9267 -68.5961 159° South 254 292 4,000 -900 Descending Boston Center
12:26PM 44.8631 -68.5622 159° South 259 298 3,400 -540 Descending Boston Center
12:27PM 44.8167 -68.5500 169° South 260 299 3,100 -300 Descending Moncton Center
12:28PM 44.7500 -68.5167 160° South 250 288 2,900 -120 Descending Moncton Center
12:29PM 44.7000 -68.5833 223° Southwest 230 265 2,900  Level Moncton Center
12:30PM 44.6500 -68.6333 215° Southwest 200 230 2,900  Level Moncton Center
12:31PM 44.6167 -68.6667 215° Southwest 180 207 2,900 -540 Level Moncton Center
12:32PM 44.6667 -68.7000 335° Northwest 170 196 1,900 -540 Descending Moncton Center
12:33PM 44.7000 -68.7333 325° Northwest 170 196 1,900 -420 Level Moncton Center
12:34PM 44.7656 -68.7733 337° Northwest 145 167 1,000 -720 Descending Boston Center